Time;durP1;ratioP1;P1;durP2;ratioP2;P2;SDS_P1;SDS_P2;PMS_P1;PMS_P2;Temp;Humidity;BMP_temperature;BMP_pressure;BME280_temperature;BME280_humidity;BME280_pressure;Samples;Min_cycle;Max_cycle;Signal;HPM_P1;HPM_P2
2021/09/26 00:01:10;;;;;;;;;30.25;29.00;;;;;;;;4982616;28;51392;-57
2021/09/26 00:03:37;;;;;;;;;33.25;28.75;;;;;;;;4984977;28;52630;-57
2021/09/26 00:06:03;;;;;;;;;38.50;34.50;;;;;;;;4989215;28;51130;-57
2021/09/26 00:08:28;;;;;;;;;30.00;27.75;;;;;;;;4971814;28;51308;-57
2021/09/26 00:10:53;;;;;;;;;30.75;29.25;;;;;;;;4986043;28;51718;-58
2021/09/26 00:13:19;;;;;;;;;25.00;25.00;;;;;;;;5001185;28;52339;-57
2021/09/26 00:15:44;;;;;;;;;27.00;26.50;;;;;;;;4985748;28;51124;-58
2021/09/26 00:18:09;;;;;;;;;27.50;26.00;;;;;;;;4991834;28;50886;-57
2021/09/26 00:20:34;;;;;;;;;25.50;25.25;;;;;;;;4989147;28;51171;-58
2021/09/26 00:23:00;;;;;;;;;26.75;26.25;;;;;;;;4992309;28;52227;-60
2021/09/26 00:25:25;;;;;;;;;25.00;23.50;;;;;;;;4975118;28;50909;-57
2021/09/26 00:27:50;;;;;;;;;25.25;23.75;;;;;;;;4980218;28;50957;-57
2021/09/26 00:30:16;;;;;;;;;31.75;30.00;;;;;;;;4977354;28;51188;-57
2021/09/26 00:32:42;;;;;;;;;25.75;24.50;;;;;;;;4990992;28;51059;-57
2021/09/26 00:35:08;;;;;;;;;24.75;23.25;;;;;;;;4983948;28;51171;-57
2021/09/26 00:37:33;;;;;;;;;26.25;24.00;;;;;;;;4985975;28;50978;-57
2021/09/26 00:39:58;;;;;;;;;24.50;22.25;;;;;;;;4982541;28;51168;-57
2021/09/26 00:42:23;;;;;;;;;25.25;24.50;;;;;;;;4973820;28;52186;-57
2021/09/26 00:44:48;;;;;;;;;28.75;27.50;;;;;;;;4991222;28;51080;-57
2021/09/26 00:47:14;;;;;;;;;27.75;26.75;;;;;;;;4991182;28;51078;-57
2021/09/26 00:49:39;;;;;;;;;23.25;22.75;;;;;;;;4982444;28;51396;-58
2021/09/26 00:52:05;;;;;;;;;22.50;22.25;;;;;;;;4989322;28;52040;-57
2021/09/26 00:54:30;;;;;;;;;29.00;28.00;;;;;;;;4956789;28;50948;-57
2021/09/26 00:56:56;;;;;;;;;26.75;26.00;;;;;;;;4987320;28;51054;-58
2021/09/26 00:59:21;;;;;;;;;23.25;22.25;;;;;;;;4994042;28;51119;-58
2021/09/26 01:01:47;;;;;;;;;24.75;24.50;;;;;;;;4990348;28;51386;-57
2021/09/26 01:04:16;;;;;;;;;21.75;21.75;;;;;;;;4988597;28;51141;-58
2021/09/26 01:06:54;;;;;;;;;23.25;22.75;;;;;;;;4986449;28;51191;-57
2021/09/26 01:09:29;;;;;;;;;23.25;21.75;;;;;;;;4974279;28;51281;-58
2021/09/26 01:12:08;;;;;;;;;21.50;21.50;;;;;;;;4973110;28;51882;-58
2021/09/26 01:14:37;;;;;;;;;20.50;20.25;;;;;;;;4991022;28;50935;-58
2021/09/26 01:17:02;;;;;;;;;24.25;24.00;;;;;;;;4984250;28;51360;-58
2021/09/26 01:19:44;;;;;;;;;23.75;22.75;;;;;;;;4972207;28;51261;-58
2021/09/26 01:22:12;;;;;;;;;23.75;23.50;;;;;;;;4987946;28;52497;-58
2021/09/26 01:24:55;;;;;;;;;21.50;20.00;;;;;;;;4989916;28;51368;-58
2021/09/26 01:27:39;;;;;;;;;20.50;20.50;;;;;;;;4978524;28;51059;-58
2021/09/26 01:30:19;;;;;;;;;20.75;19.50;;;;;;;;4991639;28;51358;-58
2021/09/26 01:33:05;;;;;;;;;19.50;18.50;;;;;;;;4990451;28;51867;-58
2021/09/26 01:35:34;;;;;;;;;21.25;21.00;;;;;;;;4960939;28;51304;-58
2021/09/26 01:38:16;;;;;;;;;21.25;20.75;;;;;;;;4975411;28;51143;-58
2021/09/26 01:41:05;;;;;;;;;22.25;20.75;;;;;;;;4977811;28;51550;-58
2021/09/26 01:43:37;;;;;;;;;21.50;19.50;;;;;;;;4982081;28;51200;-58
2021/09/26 01:46:06;;;;;;;;;19.75;19.00;;;;;;;;4993158;28;51054;-58
2021/09/26 01:48:34;;;;;;;;;19.00;19.00;;;;;;;;4991402;28;51246;-58
2021/09/26 01:51:00;;;;;;;;;17.75;17.75;;;;;;;;4991125;28;50951;-58
2021/09/26 01:53:26;;;;;;;;;20.75;20.50;;;;;;;;4985792;28;51334;-58
2021/09/26 01:55:52;;;;;;;;;19.00;19.00;;;;;;;;4984653;28;50957;-58
2021/09/26 01:58:19;;;;;;;;;16.75;16.50;;;;;;;;4983525;28;51152;-58
2021/09/26 02:00:44;;;;;;;;;19.00;18.00;;;;;;;;4978429;28;51284;-58
2021/09/26 02:03:10;;;;;;;;;17.25;17.25;;;;;;;;4991463;28;51934;-58
2021/09/26 02:05:39;;;;;;;;;21.50;20.00;;;;;;;;4992320;28;51235;-58
2021/09/26 02:08:06;;;;;;;;;20.25;20.00;;;;;;;;4991326;28;51086;-58
2021/09/26 02:10:32;;;;;;;;;20.00;19.75;;;;;;;;4988403;28;51365;-57
2021/09/26 02:12:57;;;;;;;;;21.25;19.75;;;;;;;;4980162;28;52491;-58
2021/09/26 02:15:24;;;;;;;;;17.75;16.50;;;;;;;;4987530;28;50947;-58
2021/09/26 02:17:51;;;;;;;;;16.50;16.00;;;;;;;;4986359;28;51249;-58
2021/09/26 02:20:17;;;;;;;;;20.25;18.75;;;;;;;;4990955;28;51233;-58
2021/09/26 02:22:44;;;;;;;;;18.25;18.00;;;;;;;;4993941;28;51317;-58
2021/09/26 02:25:10;;;;;;;;;20.00;18.50;;;;;;;;4985606;28;51019;-57
2021/09/26 02:27:35;;;;;;;;;20.00;19.00;;;;;;;;4979536;28;51176;-57
2021/09/26 02:30:01;;;;;;;;;21.00;19.25;;;;;;;;4975087;28;51296;-57
2021/09/26 02:32:27;;;;;;;;;22.00;20.50;;;;;;;;4979990;28;51337;-59
2021/09/26 02:34:52;;;;;;;;;21.25;19.25;;;;;;;;4985453;28;51306;-59
2021/09/26 02:37:17;;;;;;;;;18.25;17.75;;;;;;;;4983599;28;51072;-59
2021/09/26 02:39:43;;;;;;;;;20.00;19.00;;;;;;;;4982065;28;51151;-59
2021/09/26 02:42:12;;;;;;;;;21.00;20.00;;;;;;;;4990750;28;51494;-57
2021/09/26 02:44:56;;;;;;;;;20.75;20.75;;;;;;;;4995701;28;50936;-57
2021/09/26 02:47:23;;;;;;;;;20.00;19.00;;;;;;;;4989874;28;51155;-59
2021/09/26 02:49:49;;;;;;;;;20.25;19.25;;;;;;;;4993405;28;51249;-59
2021/09/26 02:52:14;;;;;;;;;20.75;20.00;;;;;;;;4993193;28;51814;-59
2021/09/26 02:54:41;;;;;;;;;21.75;21.25;;;;;;;;4986821;28;50960;-59
2021/09/26 02:57:06;;;;;;;;;17.50;17.00;;;;;;;;4979784;28;51073;-57
2021/09/26 02:59:32;;;;;;;;;21.25;19.00;;;;;;;;4993934;28;51409;-57
2021/09/26 03:01:57;;;;;;;;;19.25;18.00;;;;;;;;4990730;28;51289;-57
2021/09/26 03:04:23;;;;;;;;;18.00;16.50;;;;;;;;4994570;28;50856;-58
2021/09/26 03:06:48;;;;;;;;;17.50;17.50;;;;;;;;4982352;28;51207;-58
2021/09/26 03:09:13;;;;;;;;;20.00;18.75;;;;;;;;4994422;28;51302;-58
2021/09/26 03:11:39;;;;;;;;;14.00;14.00;;;;;;;;4993389;28;52077;-58
2021/09/26 03:14:04;;;;;;;;;18.50;18.00;;;;;;;;4990785;28;51028;-58
2021/09/26 03:16:30;;;;;;;;;20.25;18.75;;;;;;;;4991283;28;51094;-58
2021/09/26 03:18:55;;;;;;;;;18.00;17.00;;;;;;;;4990259;28;50888;-58
2021/09/26 03:21:20;;;;;;;;;17.50;16.00;;;;;;;;4976915;28;51232;-58
2021/09/26 03:23:45;;;;;;;;;18.25;18.25;;;;;;;;4989403;28;50946;-58
2021/09/26 03:26:11;;;;;;;;;21.50;20.00;;;;;;;;4992301;28;50996;-57
2021/09/26 03:28:36;;;;;;;;;19.75;19.25;;;;;;;;4981797;28;51136;-58
2021/09/26 03:31:02;;;;;;;;;16.25;16.25;;;;;;;;4987857;28;52152;-58
2021/09/26 03:33:27;;;;;;;;;19.50;19.00;;;;;;;;4973685;28;50952;-58
2021/09/26 03:35:52;;;;;;;;;19.00;19.00;;;;;;;;4992563;28;51337;-58
2021/09/26 03:38:17;;;;;;;;;18.50;18.00;;;;;;;;5000467;28;51216;-58
2021/09/26 03:40:43;;;;;;;;;18.75;18.25;;;;;;;;4991782;28;51227;-58
2021/09/26 03:43:08;;;;;;;;;19.25;19.25;;;;;;;;4975878;28;51154;-58
2021/09/26 03:45:33;;;;;;;;;18.50;17.50;;;;;;;;4981953;28;51078;-58
2021/09/26 03:47:59;;;;;;;;;19.50;19.00;;;;;;;;4975735;28;50873;-58
2021/09/26 03:50:24;;;;;;;;;20.00;19.00;;;;;;;;4989373;28;52427;-58
2021/09/26 03:52:49;;;;;;;;;20.25;20.25;;;;;;;;4993998;28;50975;-57
2021/09/26 03:55:15;;;;;;;;;21.00;21.00;;;;;;;;4989310;28;51090;-58
2021/09/26 03:57:40;;;;;;;;;20.00;18.75;;;;;;;;4985233;28;51080;-58
2021/09/26 04:00:06;;;;;;;;;16.75;16.50;;;;;;;;4983088;28;54188;-58
2021/09/26 04:02:32;;;;;;;;;19.50;17.50;;;;;;;;4981290;28;51239;-58
2021/09/26 04:04:57;;;;;;;;;16.75;16.25;;;;;;;;4980864;28;51058;-57
2021/09/26 04:07:22;;;;;;;;;17.00;17.00;;;;;;;;4978971;28;51031;-58
2021/09/26 04:09:47;;;;;;;;;17.00;17.00;;;;;;;;4983751;28;51344;-58
2021/09/26 04:12:12;;;;;;;;;16.75;15.50;;;;;;;;4992159;28;51251;-58
2021/09/26 04:14:38;;;;;;;;;15.25;15.00;;;;;;;;4990389;28;51608;-58
2021/09/26 04:17:04;;;;;;;;;17.25;17.25;;;;;;;;4976940;28;51054;-58
2021/09/26 04:19:29;;;;;;;;;18.75;17.00;;;;;;;;4990037;28;51791;-57
2021/09/26 04:21:54;;;;;;;;;18.25;18.00;;;;;;;;4984246;28;51157;-58
2021/09/26 04:24:19;;;;;;;;;16.75;16.00;;;;;;;;4990054;28;51187;-58
2021/09/26 04:26:45;;;;;;;;;16.00;16.00;;;;;;;;4993160;28;51233;-58
2021/09/26 04:29:10;;;;;;;;;18.25;18.00;;;;;;;;4992053;28;51140;-58
2021/09/26 04:31:35;;;;;;;;;17.00;16.00;;;;;;;;4993057;28;50951;-57
2021/09/26 04:34:00;;;;;;;;;19.50;18.75;;;;;;;;4988249;28;51155;-58
2021/09/26 04:36:25;;;;;;;;;16.00;15.50;;;;;;;;4993085;28;51057;-57
2021/09/26 04:38:51;;;;;;;;;18.00;17.00;;;;;;;;5002785;28;51761;-58
2021/09/26 04:41:16;;;;;;;;;17.00;17.00;;;;;;;;4983840;28;51107;-58
2021/09/26 04:43:41;;;;;;;;;19.50;18.00;;;;;;;;4973401;28;51161;-58
2021/09/26 04:46:06;;;;;;;;;19.50;19.00;;;;;;;;4983169;28;51054;-58
2021/09/26 04:48:32;;;;;;;;;18.00;17.50;;;;;;;;4973150;28;52344;-58
2021/09/26 04:50:57;;;;;;;;;19.50;18.00;;;;;;;;4985143;28;50928;-58
2021/09/26 04:53:23;;;;;;;;;21.25;20.25;;;;;;;;4987756;28;50909;-58
2021/09/26 04:55:48;;;;;;;;;19.25;18.25;;;;;;;;4990337;28;51362;-58
2021/09/26 04:58:13;;;;;;;;;18.75;18.00;;;;;;;;4993600;28;51745;-58
2021/09/26 05:00:38;;;;;;;;;17.00;16.50;;;;;;;;4981020;28;51027;-58
2021/09/26 05:03:04;;;;;;;;;20.00;19.25;;;;;;;;4989687;28;51046;-58
2021/09/26 05:05:29;;;;;;;;;20.25;19.50;;;;;;;;4987274;28;51416;-58
2021/09/26 05:07:55;;;;;;;;;19.50;18.75;;;;;;;;4991739;28;51110;-58
2021/09/26 05:10:21;;;;;;;;;18.75;18.50;;;;;;;;4988493;28;51130;-58
2021/09/26 05:12:46;;;;;;;;;19.25;18.50;;;;;;;;4993018;28;51100;-58
2021/09/26 05:15:11;;;;;;;;;19.75;19.75;;;;;;;;4992610;28;51142;-58
2021/09/26 05:17:37;;;;;;;;;23.75;22.00;;;;;;;;4989384;28;52017;-57
2021/09/26 05:20:03;;;;;;;;;18.75;18.50;;;;;;;;4980944;28;51938;-58
2021/09/26 05:22:28;;;;;;;;;20.50;19.50;;;;;;;;4984556;28;51017;-58
2021/09/26 05:24:54;;;;;;;;;22.75;22.25;;;;;;;;4984486;28;51109;-58
2021/09/26 05:27:19;;;;;;;;;20.75;19.25;;;;;;;;4975528;28;51196;-58
2021/09/26 05:29:44;;;;;;;;;20.75;19.25;;;;;;;;4982603;28;51117;-58
2021/09/26 05:32:09;;;;;;;;;17.50;16.50;;;;;;;;4982594;28;51885;-58
2021/09/26 05:34:35;;;;;;;;;20.00;20.00;;;;;;;;4977545;28;51330;-58
2021/09/26 05:37:00;;;;;;;;;22.25;21.75;;;;;;;;4994689;28;53796;-58
2021/09/26 05:39:25;;;;;;;;;24.00;23.00;;;;;;;;4997970;28;51091;-58
2021/09/26 05:41:51;;;;;;;;;22.00;21.50;;;;;;;;4989442;28;51268;-57
2021/09/26 05:44:17;;;;;;;;;20.75;20.00;;;;;;;;4989085;28;51162;-58
2021/09/26 05:46:42;;;;;;;;;21.00;19.75;;;;;;;;4992144;28;51093;-58
2021/09/26 05:49:07;;;;;;;;;20.00;20.00;;;;;;;;4989984;28;50977;-58
2021/09/26 05:51:33;;;;;;;;;22.50;22.50;;;;;;;;4984714;28;51558;-58
2021/09/26 05:53:58;;;;;;;;;18.75;18.75;;;;;;;;4988595;28;51125;-58
2021/09/26 05:56:23;;;;;;;;;18.50;18.50;;;;;;;;4956344;28;54195;-58
2021/09/26 05:58:48;;;;;;;;;19.00;18.00;;;;;;;;4975003;28;51036;-58
2021/09/26 06:01:14;;;;;;;;;20.75;20.00;;;;;;;;4991335;28;51233;-58
2021/09/26 06:03:41;;;;;;;;;21.75;21.75;;;;;;;;4990535;28;50971;-58
2021/09/26 06:06:06;;;;;;;;;19.00;18.50;;;;;;;;4975235;28;52802;-58
2021/09/26 06:08:32;;;;;;;;;20.00;19.00;;;;;;;;4973771;28;51236;-58
2021/09/26 06:10:57;;;;;;;;;20.00;19.25;;;;;;;;4990276;28;51188;-58
2021/09/26 06:13:22;;;;;;;;;22.25;22.25;;;;;;;;4997312;28;50976;-58
2021/09/26 06:15:47;;;;;;;;;17.75;17.25;;;;;;;;4983801;28;52700;-58
2021/09/26 06:18:13;;;;;;;;;20.75;20.50;;;;;;;;4984028;28;51149;-57
2021/09/26 06:20:38;;;;;;;;;23.00;22.25;;;;;;;;4987307;28;51216;-58
2021/09/26 06:23:04;;;;;;;;;20.00;19.75;;;;;;;;4991098;28;51079;-58
2021/09/26 06:25:29;;;;;;;;;20.75;20.25;;;;;;;;4977386;28;52244;-58
2021/09/26 06:27:55;;;;;;;;;18.50;17.75;;;;;;;;4982822;28;51172;-58
2021/09/26 06:30:20;;;;;;;;;22.50;22.00;;;;;;;;4987250;28;51191;-58
2021/09/26 06:32:46;;;;;;;;;20.25;19.25;;;;;;;;4975568;28;51127;-59
2021/09/26 06:35:11;;;;;;;;;19.50;19.25;;;;;;;;4983776;28;51129;-57
2021/09/26 06:37:36;;;;;;;;;17.50;17.50;;;;;;;;4993586;28;50929;-57
2021/09/26 06:40:02;;;;;;;;;21.75;20.50;;;;;;;;4994231;28;50995;-58
2021/09/26 06:42:27;;;;;;;;;18.50;18.25;;;;;;;;4975759;28;51531;-58
2021/09/26 06:44:53;;;;;;;;;24.75;22.25;;;;;;;;4987915;28;51074;-58
2021/09/26 06:47:18;;;;;;;;;20.25;20.25;;;;;;;;4985718;28;51195;-58
2021/09/26 06:49:43;;;;;;;;;20.25;19.50;;;;;;;;4982929;28;50944;-58
2021/09/26 06:52:08;;;;;;;;;25.25;21.00;;;;;;;;4981965;28;51085;-58
2021/09/26 06:54:33;;;;;;;;;19.75;18.75;;;;;;;;4977934;28;51866;-58
2021/09/26 06:56:59;;;;;;;;;19.50;19.50;;;;;;;;4981679;28;51050;-58
2021/09/26 06:59:24;;;;;;;;;20.25;19.00;;;;;;;;4981946;28;51634;-58
2021/09/26 07:01:50;;;;;;;;;21.00;19.75;;;;;;;;4977652;28;51170;-58
2021/09/26 07:04:15;;;;;;;;;19.25;17.75;;;;;;;;4977746;28;52119;-58
2021/09/26 07:06:40;;;;;;;;;18.00;17.25;;;;;;;;4991319;28;51173;-58
2021/09/26 07:09:05;;;;;;;;;16.75;16.50;;;;;;;;4990079;28;51081;-58
2021/09/26 07:11:31;;;;;;;;;18.75;18.00;;;;;;;;4994376;28;50931;-58
2021/09/26 07:13:56;;;;;;;;;18.75;16.75;;;;;;;;4994628;28;51930;-58
2021/09/26 07:16:22;;;;;;;;;20.50;18.75;;;;;;;;4990413;28;51297;-58
2021/09/26 07:18:48;;;;;;;;;16.75;16.75;;;;;;;;4978456;28;51340;-58
2021/09/26 07:21:15;;;;;;;;;16.25;15.75;;;;;;;;4993199;28;51046;-58
2021/09/26 07:23:40;;;;;;;;;21.00;20.00;;;;;;;;4991819;28;52032;-58
2021/09/26 07:26:05;;;;;;;;;21.50;20.00;;;;;;;;4990005;28;50981;-58
2021/09/26 07:28:31;;;;;;;;;18.25;18.00;;;;;;;;4992804;28;51066;-58
2021/09/26 07:30:56;;;;;;;;;21.50;21.00;;;;;;;;4989524;28;51028;-57
2021/09/26 07:33:21;;;;;;;;;21.50;20.00;;;;;;;;4997318;28;52435;-59
2021/09/26 07:35:48;;;;;;;;;21.75;19.00;;;;;;;;4987621;28;51260;-58
2021/09/26 07:38:13;;;;;;;;;22.50;21.75;;;;;;;;4990596;28;51280;-59
2021/09/26 07:40:39;;;;;;;;;18.00;17.00;;;;;;;;4991242;28;51573;-58
2021/09/26 07:43:06;;;;;;;;;22.00;21.00;;;;;;;;4982999;28;51953;-58
2021/09/26 07:45:31;;;;;;;;;21.00;20.25;;;;;;;;4984833;28;51324;-58
2021/09/26 07:47:56;;;;;;;;;21.00;21.00;;;;;;;;4985005;28;51023;-58
2021/09/26 07:50:25;;;;;;;;;21.50;21.25;;;;;;;;4989723;28;51194;-59
2021/09/26 07:52:51;;;;;;;;;19.50;19.50;;;;;;;;4988648;28;52228;-59
2021/09/26 07:55:16;;;;;;;;;16.25;16.25;;;;;;;;4989544;28;51055;-59
2021/09/26 07:57:41;;;;;;;;;22.00;21.00;;;;;;;;4994603;28;50865;-59
2021/09/26 08:00:06;;;;;;;;;19.00;18.00;;;;;;;;4983794;28;51027;-58
2021/09/26 08:02:32;;;;;;;;;20.00;19.00;;;;;;;;4992119;28;51112;-58
2021/09/26 08:04:57;;;;;;;;;22.50;21.50;;;;;;;;4987325;28;51199;-61
2021/09/26 08:07:22;;;;;;;;;19.00;17.75;;;;;;;;4974275;28;51014;-58
2021/09/26 08:09:47;;;;;;;;;22.00;20.25;;;;;;;;4979871;28;51486;-58
2021/09/26 08:12:13;;;;;;;;;21.00;18.50;;;;;;;;4981163;28;51947;-59
2021/09/26 08:14:38;;;;;;;;;20.25;20.25;;;;;;;;4991666;28;51121;-58
2021/09/26 08:17:03;;;;;;;;;19.50;18.75;;;;;;;;4988156;28;50982;-58
2021/09/26 08:19:29;;;;;;;;;21.50;20.00;;;;;;;;4982263;28;51193;-58
2021/09/26 08:21:54;;;;;;;;;21.75;20.25;;;;;;;;4980708;28;52404;-57
2021/09/26 08:24:19;;;;;;;;;18.75;18.75;;;;;;;;4977482;28;51180;-58
2021/09/26 08:26:44;;;;;;;;;20.00;19.25;;;;;;;;4983703;28;51169;-58
2021/09/26 08:29:10;;;;;;;;;23.75;22.75;;;;;;;;4979593;28;51517;-57
2021/09/26 08:31:35;;;;;;;;;22.50;20.25;;;;;;;;4984258;28;51768;-57
2021/09/26 08:34:00;;;;;;;;;20.25;20.25;;;;;;;;4983816;28;51142;-57
2021/09/26 08:36:25;;;;;;;;;18.75;18.50;;;;;;;;4993894;28;51142;-58
2021/09/26 08:38:51;;;;;;;;;21.75;19.25;;;;;;;;5003495;28;51336;-57
2021/09/26 08:41:16;;;;;;;;;22.25;21.00;;;;;;;;4991429;28;52491;-57
2021/09/26 08:43:42;;;;;;;;;20.50;18.50;;;;;;;;4980847;28;52084;-57
2021/09/26 08:46:07;;;;;;;;;21.00;20.00;;;;;;;;4986365;28;51306;-57
2021/09/26 08:48:33;;;;;;;;;16.50;16.50;;;;;;;;4980105;28;51264;-57
2021/09/26 08:50:58;;;;;;;;;19.25;19.00;;;;;;;;4983335;28;51652;-57
2021/09/26 08:53:26;;;;;;;;;16.00;16.00;;;;;;;;4981996;28;50956;-57
2021/09/26 08:55:53;;;;;;;;;16.50;16.25;;;;;;;;4990491;28;52911;-57
2021/09/26 08:58:19;;;;;;;;;20.25;19.00;;;;;;;;4975162;28;51087;-58
2021/09/26 09:00:44;;;;;;;;;20.00;17.25;;;;;;;;4988099;28;52219;-58
2021/09/26 09:03:10;;;;;;;;;18.00;17.33;;;;;;;;4986131;28;51124;-58
2021/09/26 09:05:38;;;;;;;;;16.33;15.67;;;;;;;;4985826;28;51598;-58
2021/09/26 09:08:10;;;;;;;;;15.33;15.33;;;;;;;;4988141;28;51595;-58
2021/09/26 09:10:39;;;;;;;;;16.33;16.00;;;;;;;;4980586;28;52335;-58
2021/09/26 09:13:05;;;;;;;;;12.67;12.33;;;;;;;;4988946;28;51006;-58
2021/09/26 09:15:31;;;;;;;;;15.00;14.00;;;;;;;;4984498;28;51163;-59
2021/09/26 09:18:00;;;;;;;;;16.33;15.33;;;;;;;;4984389;28;51187;-59
2021/09/26 09:20:26;;;;;;;;;14.67;13.00;;;;;;;;4991637;28;51358;-59
2021/09/26 09:22:53;;;;;;;;;16.33;15.33;;;;;;;;4989268;28;51292;-58
2021/09/26 09:25:29;;;;;;;;;15.00;13.67;;;;;;;;4989638;28;51270;-59
2021/09/26 09:27:58;;;;;;;;;14.33;12.67;;;;;;;;4993393;28;51309;-59
2021/09/26 09:30:27;;;;;;;;;14.00;13.00;;;;;;;;4986089;28;53577;-59
2021/09/26 09:32:52;;;;;;;;;9.67;9.33;;;;;;;;4986742;28;51156;-58
2021/09/26 09:35:18;;;;;;;;;11.33;11.00;;;;;;;;4990014;28;51224;-60
2021/09/26 09:37:43;;;;;;;;;13.00;12.67;;;;;;;;4972638;28;51211;-59
2021/09/26 09:40:08;;;;;;;;;12.33;11.67;;;;;;;;4978916;28;51202;-59
2021/09/26 09:42:42;;;;;;;;;15.00;14.00;;;;;;;;4980120;28;51023;-58
2021/09/26 09:45:16;;;;;;;;;13.33;11.67;;;;;;;;4987018;28;51147;-60
2021/09/26 09:47:56;;;;;;;;;15.67;14.67;;;;;;;;4988106;28;51364;-60
2021/09/26 09:50:26;;;;;;;;;13.00;11.67;;;;;;;;4981035;28;52867;-59
2021/09/26 09:52:53;;;;;;;;;12.67;12.67;;;;;;;;4983155;28;51466;-60
2021/09/26 09:55:19;;;;;;;;;13.33;12.67;;;;;;;;4989253;28;51096;-61
2021/09/26 09:57:44;;;;;;;;;13.67;13.67;;;;;;;;4982452;28;51052;-63
2021/09/26 10:00:15;;;;;;;;;8.33;8.33;;;;;;;;4980648;28;52224;-60
2021/09/26 10:02:40;;;;;;;;;14.00;13.67;;;;;;;;4985256;28;51122;-60
2021/09/26 10:05:06;;;;;;;;;10.67;10.67;;;;;;;;4982524;28;51208;-61
2021/09/26 10:07:31;;;;;;;;;12.67;12.67;;;;;;;;4972571;28;51033;-60
2021/09/26 10:09:57;;;;;;;;;13.00;12.33;;;;;;;;4976755;28;51998;-60
2021/09/26 10:12:22;;;;;;;;;12.33;12.00;;;;;;;;4989786;28;50933;-60
2021/09/26 10:14:49;;;;;;;;;13.67;13.67;;;;;;;;4996497;28;51287;-60
2021/09/26 10:17:14;;;;;;;;;11.00;10.67;;;;;;;;4975038;28;51291;-60
2021/09/26 10:19:40;;;;;;;;;14.33;14.00;;;;;;;;4979276;28;51870;-60
2021/09/26 10:22:05;;;;;;;;;12.33;12.00;;;;;;;;4973839;28;50966;-60
2021/09/26 10:24:35;;;;;;;;;14.67;14.67;;;;;;;;4978787;28;51059;-60
2021/09/26 10:27:05;;;;;;;;;14.33;14.00;;;;;;;;4990781;28;51338;-62
2021/09/26 10:29:32;;;;;;;;;16.33;15.00;;;;;;;;4988803;28;51312;-60
2021/09/26 10:31:59;;;;;;;;;14.33;14.33;;;;;;;;4990164;28;51011;-59
2021/09/26 10:34:25;;;;;;;;;17.33;16.00;;;;;;;;4987723;28;51214;-61
2021/09/26 10:36:50;;;;;;;;;15.33;15.33;;;;;;;;4990270;28;51138;-59
2021/09/26 10:39:16;;;;;;;;;16.67;16.00;;;;;;;;4998409;28;51770;-58
2021/09/26 10:42:00;;;;;;;;;12.67;12.33;;;;;;;;4990666;28;51084;-61
2021/09/26 10:44:26;;;;;;;;;17.67;17.00;;;;;;;;4991215;28;51759;-60
2021/09/26 10:47:07;;;;;;;;;17.67;16.00;;;;;;;;4992567;28;51066;-60
2021/09/26 10:49:36;;;;;;;;;16.00;16.00;;;;;;;;4991076;28;51899;-61
2021/09/26 10:52:02;;;;;;;;;15.33;15.33;;;;;;;;4985367;28;51201;-60
2021/09/26 10:54:37;;;;;;;;;14.00;13.00;;;;;;;;4961572;28;51136;-60
2021/09/26 10:57:08;;;;;;;;;14.67;14.67;;;;;;;;4985518;28;51054;-59
2021/09/26 10:59:41;;;;;;;;;17.00;16.50;;;;;;;;4982109;28;51114;-60
2021/09/26 11:02:21;;;;;;;;;15.00;14.00;;;;;;;;4987267;28;50915;-59
2021/09/26 11:04:47;;;;;;;;;16.00;15.00;;;;;;;;4980896;28;51030;-59
2021/09/26 11:07:16;;;;;;;;;16.00;15.00;;;;;;;;4980157;28;51041;-59
2021/09/26 11:09:54;;;;;;;;;14.00;12.00;;;;;;;;4979542;28;51756;-60
2021/09/26 11:12:38;;;;;;;;;10.67;10.67;;;;;;;;4978742;28;51299;-58
2021/09/26 11:15:05;;;;;;;;;14.67;14.00;;;;;;;;4993087;28;51424;-59
2021/09/26 11:17:43;;;;;;;;;12.33;12.33;;;;;;;;4980357;28;51231;-59
2021/09/26 11:20:10;;;;;;;;;14.67;14.67;;;;;;;;4984281;28;51848;-60
2021/09/26 11:22:35;;;;;;;;;14.00;13.00;;;;;;;;4981123;28;51099;-59
2021/09/26 11:25:00;;;;;;;;;14.33;14.00;;;;;;;;4979773;28;51331;-59
2021/09/26 11:27:36;;;;;;;;;12.33;11.33;;;;;;;;4983843;28;52791;-60
2021/09/26 11:30:01;;;;;;;;;13.33;12.33;;;;;;;;4982610;28;51121;-58
2021/09/26 11:32:28;;;;;;;;;10.00;9.67;;;;;;;;4981015;28;51103;-60
2021/09/26 11:34:57;;;;;;;;;11.67;11.67;;;;;;;;4978116;28;51281;-60
2021/09/26 11:37:38;;;;;;;;;13.00;12.00;;;;;;;;4978458;28;51183;-60
2021/09/26 11:40:07;;;;;;;;;13.33;12.00;;;;;;;;4982714;28;51982;-60
2021/09/26 11:42:33;;;;;;;;;14.33;13.33;;;;;;;;4979542;28;51389;-61
2021/09/26 11:44:59;;;;;;;;;13.33;13.00;;;;;;;;4985952;28;51302;-60
2021/09/26 11:47:25;;;;;;;;;11.67;11.33;;;;;;;;4983457;28;51743;-60
2021/09/26 11:49:50;;;;;;;;;10.33;10.33;;;;;;;;4985304;28;54035;-60
2021/09/26 11:52:16;;;;;;;;;8.67;8.67;;;;;;;;4984720;28;51250;-60
2021/09/26 11:54:43;;;;;;;;;12.00;9.00;;;;;;;;4970100;28;51460;-60
2021/09/26 11:57:12;;;;;;;;;15.33;15.00;;;;;;;;4981456;28;51291;-59
2021/09/26 11:59:38;;;;;;;;;10.67;10.33;;;;;;;;4977346;28;51508;-60
2021/09/26 12:02:14;;;;;;;;;13.67;13.33;;;;;;;;4982863;28;52411;-60
2021/09/26 12:04:39;;;;;;;;;15.67;14.67;;;;;;;;4981697;28;51126;-60
2021/09/26 12:07:05;;;;;;;;;12.67;11.67;;;;;;;;4981521;28;51493;-60
2021/09/26 12:09:34;;;;;;;;;15.00;13.33;;;;;;;;4978157;28;53630;-60
2021/09/26 12:11:59;;;;;;;;;14.00;12.67;;;;;;;;4985595;28;52199;-60
2021/09/26 12:14:29;;;;;;;;;11.00;11.00;;;;;;;;4982667;28;51277;-60
2021/09/26 12:16:54;;;;;;;;;10.00;9.67;;;;;;;;4986928;28;51095;-59
2021/09/26 12:19:19;;;;;;;;;10.67;10.67;;;;;;;;4977009;28;51297;-59
2021/09/26 12:21:44;;;;;;;;;11.67;11.67;;;;;;;;4986371;28;50995;-59
2021/09/26 12:24:14;;;;;;;;;15.00;15.00;;;;;;;;4976781;28;51181;-59
2021/09/26 12:26:43;;;;;;;;;13.00;13.00;;;;;;;;4992215;28;51121;-59
2021/09/26 12:29:17;;;;;;;;;17.00;14.00;;;;;;;;4989680;28;54204;-59
2021/09/26 12:31:43;;;;;;;;;14.33;14.00;;;;;;;;4978309;28;51259;-59
2021/09/26 12:34:10;;;;;;;;;10.33;9.33;;;;;;;;4985277;28;51124;-58
2021/09/26 12:36:38;;;;;;;;;10.67;10.67;;;;;;;;4983037;28;52610;-59
2021/09/26 12:39:05;;;;;;;;;14.00;13.33;;;;;;;;4983375;28;52934;-59
2021/09/26 12:41:32;;;;;;;;;12.00;12.00;;;;;;;;4984490;28;51178;-59
2021/09/26 12:44:05;;;;;;;;;14.00;14.00;;;;;;;;4987865;28;54343;-59
2021/09/26 12:46:39;;;;;;;;;10.00;9.00;;;;;;;;4992907;28;51245;-59
2021/09/26 12:49:07;;;;;;;;;9.00;9.00;;;;;;;;4989124;28;51186;-60
2021/09/26 12:51:35;;;;;;;;;17.00;17.00;;;;;;;;4978556;28;51173;-58
2021/09/26 12:54:03;;;;;;;;;10.33;10.00;;;;;;;;4974509;28;51165;-59
2021/09/26 12:56:30;;;;;;;;;13.67;12.33;;;;;;;;4992141;28;50842;-59
2021/09/26 12:58:57;;;;;;;;;11.00;9.67;;;;;;;;4989529;28;52302;-59
2021/09/26 13:01:22;;;;;;;;;14.00;12.33;;;;;;;;4992376;28;50996;-59
2021/09/26 13:04:08;;;;;;;;;15.00;13.00;;;;;;;;4989324;28;51037;-62
2021/09/26 13:06:47;;;;;;;;;12.67;11.33;;;;;;;;4965346;28;51537;-60
2021/09/26 13:09:15;;;;;;;;;13.33;11.67;;;;;;;;4986027;28;52973;-59
2021/09/26 13:11:42;;;;;;;;;12.67;11.00;;;;;;;;4981974;28;52116;-59
2021/09/26 13:14:07;;;;;;;;;12.00;10.00;;;;;;;;4990684;28;51094;-59
2021/09/26 13:16:41;;;;;;;;;15.33;13.67;;;;;;;;4985313;28;51101;-59
2021/09/26 13:19:25;;;;;;;;;7.67;5.00;;;;;;;;4976080;28;51938;-59
2021/09/26 13:22:24;;;;;;;;;8.33;8.00;;;;;;;;4992181;28;51048;-60
2021/09/26 13:25:12;;;;;;;;;1.00;1.00;;;;;;;;4987028;28;51241;-60
2021/09/26 13:27:41;;;;;;;;;6.00;5.00;;;;;;;;4969539;28;51187;-59
2021/09/26 13:30:15;;;;;;;;;4.67;4.00;;;;;;;;4987989;28;51213;-59
2021/09/26 13:32:40;;;;;;;;;6.00;5.33;;;;;;;;4978532;28;51374;-58
2021/09/26 13:35:09;;;;;;;;;9.00;9.00;;;;;;;;4984136;28;51063;-59
2021/09/26 13:37:35;;;;;;;;;8.67;8.67;;;;;;;;4997988;28;51141;-59
2021/09/26 13:40:04;;;;;;;;;7.00;7.00;;;;;;;;4993876;28;53124;-59
2021/09/26 13:42:34;;;;;;;;;8.00;7.00;;;;;;;;4991904;28;51104;-59
2021/09/26 13:45:01;;;;;;;;;8.00;8.00;;;;;;;;4988465;28;51150;-59
2021/09/26 13:47:28;;;;;;;;;8.00;8.00;;;;;;;;4992162;28;50844;-59
2021/09/26 13:49:53;;;;;;;;;7.67;7.67;;;;;;;;4988182;28;51124;-59
2021/09/26 13:52:20;;;;;;;;;8.00;8.00;;;;;;;;4972680;28;50915;-60
2021/09/26 13:54:46;;;;;;;;;7.00;7.00;;;;;;;;4981438;28;51017;-59
2021/09/26 13:57:11;;;;;;;;;16.67;15.67;;;;;;;;4991744;28;51018;-59
2021/09/26 13:59:37;;;;;;;;;11.33;10.33;;;;;;;;4988324;28;51170;-60
2021/09/26 14:02:06;;;;;;;;;6.00;6.00;;;;;;;;4988909;28;51030;-59
2021/09/26 14:04:31;;;;;;;;;9.33;9.00;;;;;;;;4987663;28;51149;-60
2021/09/26 14:06:57;;;;;;;;;9.00;8.33;;;;;;;;4991752;28;51173;-60
2021/09/26 14:09:22;;;;;;;;;10.00;9.67;;;;;;;;4988310;28;51134;-59
2021/09/26 14:11:47;;;;;;;;;9.67;8.67;;;;;;;;4991047;28;51051;-59
2021/09/26 14:14:12;;;;;;;;;9.67;9.00;;;;;;;;4995696;28;51035;-59
2021/09/26 14:16:38;;;;;;;;;8.67;8.67;;;;;;;;4989453;28;51359;-59
2021/09/26 14:19:04;;;;;;;;;8.67;8.67;;;;;;;;4981854;28;51266;-59